createdAt,value
2022-08-10T00:01:11.395Z,1.30
2022-08-10T00:04:15.563Z,1.58
2022-08-10T00:07:22.985Z,1.55
2022-08-10T00:10:24.958Z,1.45
2022-08-10T00:13:26.949Z,1.70
2022-08-10T00:16:28.668Z,1.50
2022-08-10T00:20:04.076Z,1.60
2022-08-10T00:22:54.957Z,1.60
2022-08-10T00:26:00.480Z,1.92
2022-08-10T00:29:02.081Z,1.77
2022-08-10T00:32:04.271Z,1.67
2022-08-10T00:35:06.682Z,1.73
2022-08-10T00:38:11.164Z,1.63
2022-08-10T00:41:13.020Z,1.90
2022-08-10T00:44:14.806Z,1.70
2022-08-10T00:47:36.287Z,1.48
2022-08-10T00:50:39.124Z,1.70
2022-08-10T00:53:41.228Z,1.70
2022-08-10T00:57:17.502Z,1.80
2022-08-10T01:00:09.748Z,1.70
2022-08-10T01:03:15.082Z,1.75
2022-08-10T01:06:35.518Z,2.00
2022-08-10T01:09:42.933Z,1.90
2022-08-10T01:13:22.166Z,1.63
2022-08-10T01:16:36.120Z,1.70
2022-08-10T01:20:06.383Z,1.88
2022-08-10T01:23:26.662Z,1.90
2022-08-10T01:26:53.318Z,1.88
2022-08-10T01:30:12.443Z,1.90
2022-08-10T01:33:58.167Z,1.70
2022-08-10T01:37:03.355Z,1.80
2022-08-10T01:40:09.960Z,1.90
2022-08-10T01:46:17.766Z,1.70
2022-08-10T01:49:23.161Z,1.90
2022-08-10T01:52:27.725Z,1.90
2022-08-10T01:55:30.169Z,1.90
2022-08-10T01:58:35.565Z,2.00
2022-08-10T02:01:47.917Z,1.83
2022-08-10T02:04:52.836Z,2.03
2022-08-10T02:07:56.970Z,2.00
2022-08-10T02:11:01.646Z,2.15
2022-08-10T02:14:03.913Z,1.88
2022-08-10T02:18:00.466Z,1.80
2022-08-10T02:20:45.223Z,1.80
2022-08-10T02:23:54.093Z,2.20
2022-08-10T02:27:05.712Z,2.00
2022-08-10T02:30:08.884Z,1.90
2022-08-10T02:33:11.482Z,2.03
2022-08-10T02:36:14.824Z,1.98
2022-08-10T02:39:18.651Z,1.85
2022-08-10T02:45:29.920Z,2.08
2022-08-10T02:46:08.384Z,1.95
2022-08-10T02:49:18.300Z,2.00
2022-08-10T02:52:24.830Z,1.77
2022-08-10T02:55:46.257Z,1.90
2022-08-10T02:58:57.525Z,2.10
2022-08-10T03:02:03.703Z,1.90
2022-08-10T03:05:09.615Z,2.10
2022-08-10T03:08:13.531Z,2.22
2022-08-10T03:12:35.972Z,2.05
2022-08-10T03:14:46.594Z,2.30
2022-08-10T03:17:56.821Z,2.40
2022-08-10T03:21:00.313Z,2.00
2022-08-10T03:24:02.970Z,2.00
2022-08-10T03:27:24.986Z,2.08
2022-08-10T03:30:32.454Z,2.20
2022-08-10T03:33:38.709Z,2.25
2022-08-10T03:36:44.933Z,2.28
2022-08-10T03:39:46.936Z,2.30
2022-08-10T03:42:51.719Z,2.20
2022-08-10T03:45:57.240Z,2.50
2022-08-10T03:49:02.206Z,2.10
2022-08-10T03:52:06.708Z,1.98
2022-08-10T03:55:08.917Z,2.22
2022-08-10T03:58:11.584Z,2.10
2022-08-10T04:01:14.664Z,2.33
2022-08-10T04:04:22.784Z,2.30
2022-08-10T04:07:26.709Z,2.40
2022-08-10T04:10:29.172Z,2.40
2022-08-10T04:13:30.833Z,2.33
2022-08-10T04:16:32.401Z,2.47
2022-08-10T04:19:40.790Z,2.80
2022-08-10T04:22:44.487Z,2.30
2022-08-10T04:25:46.202Z,2.60
2022-08-10T04:28:48.969Z,2.42
2022-08-10T04:31:52.741Z,2.20
2022-08-10T04:34:56.613Z,2.28
2022-08-10T04:38:00.481Z,2.17
2022-08-10T04:41:02.421Z,2.42
2022-08-10T04:44:05.056Z,2.55
2022-08-10T04:47:06.649Z,2.65
2022-08-10T04:50:10.414Z,2.30
2022-08-10T04:53:12.405Z,2.42
2022-08-10T04:56:13.996Z,2.20
2022-08-10T04:59:15.611Z,2.40
2022-08-10T05:02:30.714Z,2.08
2022-08-10T05:05:33.759Z,2.30
2022-08-10T05:08:35.327Z,2.75
2022-08-10T05:11:36.950Z,2.60
2022-08-10T05:14:38.559Z,2.70
2022-08-10T05:18:03.199Z,2.25
2022-08-10T05:21:03.603Z,2.15
2022-08-10T05:24:05.732Z,2.15
2022-08-10T05:27:10.097Z,2.60
2022-08-10T05:30:15.799Z,2.65
2022-08-10T05:33:17.693Z,2.60
2022-08-10T05:36:20.379Z,2.63
2022-08-10T05:39:30.578Z,2.35
2022-08-10T05:42:34.481Z,2.35
2022-08-10T05:46:17.288Z,2.00
2022-08-10T05:49:00.926Z,2.40
2022-08-10T05:52:03.875Z,2.20
2022-08-10T05:55:06.258Z,2.10
2022-08-10T05:58:08.053Z,2.25
2022-08-10T06:01:13.551Z,2.40
2022-08-10T06:04:26.586Z,2.23
2022-08-10T06:07:30.431Z,2.22
2022-08-10T06:10:35.822Z,2.50
2022-08-10T06:14:18.431Z,2.35
2022-08-10T06:17:23.214Z,2.40
2022-08-10T06:20:25.053Z,2.53
2022-08-10T06:23:29.714Z,2.40
2022-08-10T06:26:31.317Z,2.20
2022-08-10T06:29:35.605Z,2.30
2022-08-10T06:32:37.847Z,2.30
2022-08-10T06:35:41.147Z,2.40
2022-08-10T06:38:44.702Z,2.45
2022-08-10T06:41:57.761Z,2.42
2022-08-10T06:45:15.376Z,2.72
2022-08-10T06:48:40.716Z,2.08
2022-08-10T06:51:44.285Z,2.25
2022-08-10T06:55:00.685Z,2.10
2022-08-10T06:58:04.659Z,2.45
2022-08-10T07:01:12.736Z,2.42
2022-08-10T07:04:35.382Z,2.30
2022-08-10T07:07:40.918Z,2.42
2022-08-10T07:10:46.257Z,2.20
2022-08-10T07:14:17.034Z,2.22
2022-08-10T07:17:20.235Z,2.40
2022-08-10T07:20:23.903Z,2.10
2022-08-10T07:23:57.559Z,2.20
2022-08-10T07:26:52.444Z,2.08
2022-08-10T07:29:55.757Z,1.90
2022-08-10T07:32:58.802Z,1.80
2022-08-10T07:36:01.653Z,2.20
2022-08-10T07:39:05.299Z,1.90
2022-08-10T07:42:09.915Z,1.95
2022-08-10T07:45:11.876Z,2.45
2022-08-10T07:48:22.706Z,2.20
2022-08-10T07:51:26.165Z,2.10
2022-08-10T07:54:31.169Z,2.13
2022-08-10T07:57:40.012Z,2.22
2022-08-10T08:00:45.483Z,2.03
2022-08-10T08:04:05.303Z,2.13
2022-08-10T08:07:12.679Z,2.30
2022-08-10T08:10:17.463Z,2.10
2022-08-10T08:13:22.090Z,2.00
2022-08-10T08:16:25.022Z,2.00
2022-08-10T08:19:37.159Z,2.17
2022-08-10T08:24:07.659Z,2.20
2022-08-10T08:26:07.596Z,1.85
2022-08-10T08:29:12.569Z,2.20
2022-08-10T08:32:22.249Z,2.20
2022-08-10T08:35:26.459Z,2.10
2022-08-10T08:38:34.331Z,2.28
2022-08-10T08:41:53.789Z,2.00
2022-08-10T08:45:31.621Z,2.00
2022-08-10T08:48:54.584Z,2.28
2022-08-10T08:52:18.594Z,2.05
2022-08-10T08:56:05.987Z,2.08
2022-08-10T08:59:31.073Z,2.00
2022-08-10T09:02:54.826Z,1.90
2022-08-10T09:06:10.456Z,2.33
2022-08-10T09:09:46.226Z,2.10
2022-08-10T09:13:04.843Z,2.50
2022-08-10T09:16:24.484Z,2.33
2022-08-10T09:19:47.134Z,2.05
2022-08-10T09:23:08.152Z,1.98
2022-08-10T09:26:22.226Z,2.20
2022-08-10T09:29:28.411Z,2.38
2022-08-10T09:36:15.038Z,2.10
2022-08-10T09:36:35.462Z,2.33
2022-08-10T09:41:00.848Z,2.03
2022-08-10T09:43:42.341Z,2.00
2022-08-10T09:48:01.310Z,2.20
2022-08-10T09:54:38.269Z,1.80
2022-08-10T09:58:15.200Z,2.17
2022-08-10T10:02:04.606Z,1.80
2022-08-10T10:05:36.839Z,2.15
2022-08-10T10:08:45.475Z,2.00
2022-08-10T10:12:10.161Z,2.00
2022-08-10T10:15:28.408Z,1.70
2022-08-10T10:18:29.954Z,1.70
2022-08-10T10:21:54.478Z,1.50
2022-08-10T10:25:19.717Z,1.60
2022-08-10T10:32:26.959Z,1.52
2022-08-10T10:39:00.061Z,1.90
2022-08-10T10:42:45.331Z,1.65
2022-08-10T10:46:24.424Z,2.00
2022-08-10T10:49:38.568Z,1.80
2022-08-10T10:53:21.282Z,1.50
2022-08-10T10:56:32.057Z,1.50
2022-08-10T10:59:56.401Z,1.50
2022-08-10T11:03:17.361Z,1.80
2022-08-10T11:06:40.534Z,1.70
2022-08-10T11:10:06.030Z,1.60
2022-08-10T11:14:27.237Z,1.65
2022-08-10T11:20:20.683Z,1.60
2022-08-10T11:23:31.588Z,1.50
2022-08-10T11:26:47.984Z,1.60
2022-08-10T11:30:10.605Z,1.48
2022-08-10T11:34:47.135Z,1.30
2022-08-10T11:38:30.923Z,1.70
2022-08-10T11:41:14.679Z,1.80
2022-08-10T11:44:45.491Z,1.73
2022-08-10T11:47:57.009Z,1.40
2022-08-10T11:51:04.272Z,1.42
2022-08-10T11:54:12.684Z,1.48
2022-08-10T11:57:16.004Z,1.45
2022-08-10T12:00:19.822Z,1.60
2022-08-10T12:03:22.608Z,1.50
2022-08-10T12:06:53.597Z,1.35
2022-08-10T12:10:09.138Z,1.52
2022-08-10T12:13:22.286Z,1.40
2022-08-10T12:16:28.488Z,1.45
2022-08-10T12:19:59.836Z,1.38
2022-08-10T12:23:22.688Z,1.40
2022-08-10T12:26:32.802Z,1.50
2022-08-10T12:29:43.053Z,1.48
2022-08-10T12:32:56.529Z,1.45
2022-08-10T12:36:19.003Z,1.50
2022-08-10T12:39:27.356Z,1.60
2022-08-10T12:44:03.761Z,1.50
2022-08-10T12:46:41.611Z,1.38
2022-08-10T12:50:30.805Z,1.50
2022-08-10T12:54:03.338Z,1.30
2022-08-10T12:57:09.993Z,1.30
2022-08-10T13:00:17.579Z,1.40
2022-08-10T13:04:21.365Z,1.40
2022-08-10T13:06:49.728Z,1.30
2022-08-10T13:09:56.518Z,1.63
2022-08-10T13:13:00.313Z,1.35
2022-08-10T13:16:03.692Z,1.30
2022-08-10T13:19:08.011Z,1.40
2022-08-10T13:22:12.413Z,1.38
2022-08-10T13:25:20.793Z,1.60
2022-08-10T13:28:39.912Z,1.33
2022-08-10T13:32:03.843Z,1.50
2022-08-10T13:35:12.126Z,1.50
2022-08-10T13:38:19.545Z,1.40
2022-08-10T13:41:29.648Z,1.10
2022-08-10T13:44:32.825Z,1.65
2022-08-10T13:47:37.262Z,1.25
2022-08-10T13:50:57.998Z,1.40
2022-08-10T13:54:01.697Z,1.17
2022-08-10T13:57:07.733Z,1.30
2022-08-10T14:00:37.665Z,1.30
2022-08-10T14:03:42.961Z,1.20
2022-08-10T14:06:52.262Z,1.20
2022-08-10T14:10:01.973Z,1.38
2022-08-10T14:13:06.520Z,1.38
2022-08-10T14:16:09.278Z,1.40
2022-08-10T14:19:16.128Z,1.35
2022-08-10T14:22:19.644Z,1.40
2022-08-10T14:25:56.515Z,1.23
2022-08-10T14:29:10.684Z,1.25
2022-08-10T14:32:25.793Z,1.25
2022-08-10T14:38:53.871Z,1.20
2022-08-10T14:45:19.312Z,1.80
2022-08-10T14:48:32.026Z,1.30
2022-08-10T14:51:44.534Z,1.30
2022-08-10T14:54:50.497Z,1.20
2022-08-10T14:58:19.621Z,1.20
2022-08-10T15:01:19.455Z,1.20
2022-08-10T15:04:24.979Z,1.27
2022-08-10T15:07:30.271Z,1.30
2022-08-10T15:10:32.263Z,1.10
2022-08-10T15:13:35.279Z,1.20
2022-08-10T15:16:37.631Z,1.20
2022-08-10T15:20:04.523Z,1.38
2022-08-10T15:23:30.820Z,1.30
2022-08-10T15:26:35.700Z,1.20
2022-08-10T15:29:57.203Z,1.30
2022-08-10T15:33:59.516Z,1.15
2022-08-10T15:37:40.536Z,1.40
2022-08-10T15:40:37.436Z,1.40
2022-08-10T15:43:54.966Z,1.20
2022-08-10T15:47:02.364Z,1.20
2022-08-10T15:50:17.952Z,1.10
2022-08-10T15:53:27.909Z,1.25
2022-08-10T15:56:43.503Z,1.40
2022-08-10T15:59:56.996Z,1.30
2022-08-10T16:03:17.118Z,1.35
2022-08-10T16:06:32.527Z,1.48
2022-08-10T16:10:22.008Z,1.20
2022-08-10T16:13:50.581Z,1.20
2022-08-10T16:16:36.725Z,1.30
2022-08-10T16:19:48.664Z,1.30
2022-08-10T16:22:53.684Z,1.17
2022-08-10T16:26:04.792Z,1.33
2022-08-10T16:29:22.656Z,1.25
2022-08-10T16:32:26.376Z,1.20
2022-08-10T16:35:29.383Z,1.30
2022-08-10T16:38:39.507Z,1.40
2022-08-10T16:42:03.177Z,1.20
2022-08-10T16:45:08.842Z,1.10
2022-08-10T16:48:11.330Z,1.30
2022-08-10T16:51:18.930Z,1.23
2022-08-10T16:54:27.403Z,1.30
2022-08-10T16:57:30.518Z,1.30
2022-08-10T17:00:33.214Z,1.30
2022-08-10T17:04:06.253Z,1.30
2022-08-10T17:07:08.534Z,1.30
2022-08-10T17:10:16.347Z,1.27
2022-08-10T17:13:22.589Z,1.20
2022-08-10T17:16:25.782Z,1.30
2022-08-10T17:19:30.064Z,1.30
2022-08-10T17:22:36.288Z,1.30
2022-08-10T17:25:48.697Z,1.23
2022-08-10T17:28:56.399Z,1.20
2022-08-10T17:32:14.613Z,1.23
2022-08-10T17:35:23.475Z,1.20
2022-08-10T17:38:28.998Z,1.20
2022-08-10T17:41:35.277Z,1.20
2022-08-10T17:44:40.164Z,1.42
2022-08-10T17:47:48.844Z,1.13
2022-08-10T17:50:51.840Z,1.17
2022-08-10T17:53:58.304Z,1.30
2022-08-10T17:57:04.173Z,1.20
2022-08-10T18:00:12.806Z,1.02
2022-08-10T18:03:27.306Z,1.30
2022-08-10T18:06:30.974Z,1.30
2022-08-10T18:09:35.659Z,1.20
2022-08-10T18:12:47.672Z,1.10
2022-08-10T18:15:50.657Z,1.20
2022-08-10T18:18:58.416Z,1.20
2022-08-10T18:22:03.650Z,1.20
2022-08-10T18:25:07.228Z,1.13
2022-08-10T18:28:15.045Z,1.27
2022-08-10T18:31:20.645Z,1.45
2022-08-10T18:34:26.974Z,1.50
2022-08-10T18:37:34.234Z,1.33
2022-08-10T18:40:38.482Z,1.33
2022-08-10T18:44:05.657Z,1.30
2022-08-10T18:47:17.846Z,1.50
2022-08-10T18:50:26.334Z,1.20
2022-08-10T18:53:39.017Z,1.20
2022-08-10T18:56:54.034Z,1.35
2022-08-10T19:00:07.944Z,1.20
2022-08-10T19:03:54.482Z,1.27
2022-08-10T19:07:22.849Z,1.08
2022-08-10T19:10:52.569Z,1.20
2022-08-10T19:14:12.655Z,1.40
2022-08-10T19:18:05.858Z,1.30
2022-08-10T19:21:11.362Z,1.20
2022-08-10T19:24:24.790Z,1.60
2022-08-10T19:28:00.810Z,1.40
2022-08-10T19:31:44.306Z,1.45
2022-08-10T19:34:58.207Z,1.42
2022-08-10T19:38:16.912Z,1.30
2022-08-10T19:41:21.578Z,1.40
2022-08-10T19:45:00.112Z,1.30
2022-08-10T19:48:01.722Z,1.30
2022-08-10T19:51:30.116Z,1.40
2022-08-10T19:54:55.632Z,1.40
2022-08-10T19:58:15.853Z,1.30
2022-08-10T20:01:19.267Z,1.27
2022-08-10T20:04:34.380Z,1.50
2022-08-10T20:07:53.901Z,1.30
2022-08-10T20:11:07.410Z,1.50
2022-08-10T20:14:29.642Z,1.60
2022-08-10T20:17:51.153Z,1.60
2022-08-10T20:21:16.715Z,1.58
2022-08-10T20:24:59.245Z,1.40
2022-08-10T20:28:32.638Z,1.40
2022-08-10T20:31:44.584Z,1.50
2022-08-10T20:34:51.682Z,1.50
2022-08-10T20:38:08.241Z,1.50
2022-08-10T20:41:33.373Z,1.40
2022-08-10T20:44:50.621Z,1.52
2022-08-10T20:48:15.457Z,1.60
2022-08-10T20:51:59.474Z,1.50
2022-08-10T20:54:52.237Z,1.65
2022-08-10T20:58:06.798Z,1.88
2022-08-10T21:02:07.439Z,2.10
2022-08-10T21:05:19.448Z,1.90
2022-08-10T21:08:36.671Z,2.00
2022-08-10T21:11:47.192Z,1.90
2022-08-10T21:15:26.227Z,1.92
2022-08-10T21:18:52.029Z,1.92
2022-08-10T21:22:29.420Z,1.90
2022-08-10T21:25:43.970Z,2.10
2022-08-10T21:29:19.578Z,1.90
2022-08-10T21:36:08.715Z,1.95
2022-08-10T21:39:43.090Z,2.20
2022-08-10T21:43:44.046Z,1.90
2022-08-10T21:47:39.627Z,1.90
2022-08-10T21:51:23.950Z,2.20
2022-08-10T21:54:56.227Z,2.00
2022-08-10T21:58:30.847Z,2.03
2022-08-10T22:01:55.730Z,1.90
2022-08-10T22:05:20.555Z,1.95
2022-08-10T22:08:47.889Z,2.00
2022-08-10T22:16:09.950Z,1.83
2022-08-10T22:19:33.546Z,1.80
2022-08-10T22:23:19.230Z,1.75
2022-08-10T22:27:04.632Z,2.10
2022-08-10T22:30:26.551Z,1.63
2022-08-10T22:34:10.804Z,2.00
2022-08-10T22:37:53.201Z,1.98
2022-08-10T22:41:34.071Z,1.90
2022-08-10T22:45:01.309Z,2.10
2022-08-10T22:48:24.521Z,1.77
2022-08-10T22:51:28.921Z,1.77
2022-08-10T22:54:52.096Z,1.80
2022-08-10T22:58:12.218Z,1.75
2022-08-10T23:01:40.623Z,1.70
2022-08-10T23:04:53.335Z,1.67
2022-08-10T23:08:01.842Z,1.75
2022-08-10T23:11:07.370Z,1.60
2022-08-10T23:14:15.141Z,1.80
2022-08-10T23:18:00.824Z,1.88
2022-08-10T23:21:06.466Z,1.88
2022-08-10T23:24:09.552Z,1.60
2022-08-10T23:27:38.055Z,1.80
2022-08-10T23:30:37.935Z,2.10
2022-08-10T23:33:47.379Z,1.90
2022-08-10T23:36:51.838Z,1.70
2022-08-10T23:39:55.457Z,1.90
2022-08-10T23:42:59.351Z,1.67
2022-08-10T23:46:04.069Z,1.50
2022-08-10T23:49:07.612Z,1.60
2022-08-10T23:52:19.813Z,1.63
2022-08-10T23:55:25.118Z,1.63
2022-08-10T23:58:34.050Z,1.52
